Time;durP1;ratioP1;P1;durP2;ratioP2;P2;SDS_P1;SDS_P2;PMS_P1;PMS_P2;Temp;Humidity;BMP_temperature;BMP_pressure;BME280_temperature;BME280_humidity;BME280_pressure;Samples;Min_cycle;Max_cycle;Signal;HPM_P1;HPM_P2
2022/10/25 00:02:19;;;;;;;57.08;35.95;;;;;;;12.23;100.00;97988.39;1732003;82;20868;-82
2022/10/25 00:04:45;;;;;;;59.75;32.53;;;;;;;12.23;100.00;97978.08;1731765;82;21102;-82
2022/10/25 00:07:11;;;;;;;60.08;35.58;;;;;;;12.22;100.00;97970.48;1732009;82;21420;-79
2022/10/25 00:09:37;;;;;;;52.73;32.78;;;;;;;12.17;100.00;97960.22;1758327;81;21029;-79
2022/10/25 00:12:03;;;;;;;55.48;33.13;;;;;;;12.17;100.00;97958.30;1758796;81;20928;-79
2022/10/25 00:14:29;;;;;;;49.55;32.70;;;;;;;12.17;100.00;97959.66;1758738;81;21077;-82
2022/10/25 00:16:55;;;;;;;49.88;33.58;;;;;;;12.17;100.00;97952.06;1758926;81;21412;-79
2022/10/25 00:19:21;;;;;;;50.73;33.65;;;;;;;12.16;100.00;97957.24;1758465;81;20988;-82
2022/10/25 00:21:47;;;;;;;52.58;33.30;;;;;;;12.16;100.00;97949.91;1746869;82;22008;-80
2022/10/25 00:24:13;;;;;;;46.45;30.70;;;;;;;12.16;100.00;97954.53;1769411;81;20881;-82
2022/10/25 00:26:40;;;;;;;45.60;29.55;;;;;;;12.13;100.00;97954.54;1769643;81;20983;-79
2022/10/25 00:29:07;;;;;;;46.80;30.50;;;;;;;12.14;100.00;97958.89;1769272;81;21218;-82
2022/10/25 00:31:33;;;;;;;41.15;27.10;;;;;;;12.15;100.00;97964.59;1769751;81;21036;-82
2022/10/25 00:33:59;;;;;;;43.25;28.27;;;;;;;12.17;100.00;97962.93;1716711;82;21880;-79
2022/10/25 00:36:25;;;;;;;42.10;26.97;;;;;;;12.16;100.00;97966.20;1769636;81;20987;-79
2022/10/25 00:38:52;;;;;;;37.45;25.52;;;;;;;12.16;100.00;97968.91;1769470;81;20992;-82
2022/10/25 00:41:21;;;;;;;33.53;21.15;;;;;;;12.13;100.00;97971.67;1738821;81;21036;-80
2022/10/25 00:43:50;;;;;;;34.33;23.47;;;;;;;12.14;100.00;97977.36;1765790;81;20966;-79
2022/10/25 00:46:23;;;;;;;36.03;24.07;;;;;;;12.16;100.00;97974.34;1760607;81;21142;-82
2022/10/25 00:49:03;;;;;;;38.85;26.73;;;;;;;12.18;100.00;97978.94;1760289;81;21049;-79
2022/10/25 00:51:42;;;;;;;41.77;26.30;;;;;;;12.20;100.00;97986.78;1760590;81;21363;-79
2022/10/25 00:54:10;;;;;;;37.80;25.82;;;;;;;12.20;100.00;97983.52;1760362;81;21088;-82
2022/10/25 00:56:38;;;;;;;40.98;25.25;;;;;;;12.20;100.00;97979.99;1733071;82;20975;-81
2022/10/25 00:59:07;;;;;;;40.10;27.37;;;;;;;12.18;100.00;97972.14;1751780;82;21164;-80
2022/10/25 01:01:32;;;;;;;;;;;;;;;12.13;100.00;97968.95;1735667;82;21011;-82
2022/10/25 01:04:01;;;;;;;41.02;22.50;;;;;;;12.12;100.00;97967.31;1732877;82;20220;-82
2022/10/25 01:06:48;;;;;;;42.38;25.80;;;;;;;12.14;100.00;97967.85;1752329;81;21043;-82
2022/10/25 01:09:20;;;;;;;46.20;26.35;;;;;;;12.10;100.00;97962.73;1744104;82;21048;-83
2022/10/25 01:11:46;;;;;;;37.63;24.82;;;;;;;12.10;100.00;97953.77;1769570;81;21795;-82
2022/10/25 01:14:14;;;;;;;43.48;28.27;;;;;;;12.07;100.00;97963.32;1769170;81;20936;-79
2022/10/25 01:17:18;;;;;;;48.28;33.45;;;;;;;12.07;100.00;97963.32;1739381;81;20989;-82
2022/10/25 01:20:27;;;;;;;52.17;31.50;;;;;;;12.05;100.00;97970.95;1746682;82;21418;-79
2022/10/25 01:23:13;;;;;;;46.75;29.52;;;;;;;12.03;100.00;97981.83;1769364;81;20961;-82
2022/10/25 01:25:44;;;;;;;42.27;29.55;;;;;;;12.01;100.00;97984.84;1746618;82;21149;-82
2022/10/25 01:28:39;;;;;;;47.25;30.30;;;;;;;11.94;100.00;97977.58;1769156;81;21051;-82
2022/10/25 01:31:25;;;;;;;43.33;28.23;;;;;;;11.86;100.00;97980.38;1769471;81;21515;-82
2022/10/25 01:34:23;;;;;;;44.73;29.15;;;;;;;11.84;100.00;97989.37;1769345;81;21001;-82
2022/10/25 01:37:14;;;;;;;45.88;28.65;;;;;;;11.83;100.00;97989.11;1708888;81;21010;-79
2022/10/25 01:39:55;;;;;;;44.35;26.93;;;;;;;11.79;100.00;97989.41;1769498;81;21173;-82
2022/10/25 01:42:45;;;;;;;41.25;26.20;;;;;;;11.77;100.00;97993.49;1769071;81;21139;-82
2022/10/25 01:45:22;;;;;;;40.30;25.75;;;;;;;11.74;100.00;97992.72;1753194;81;20982;-79
2022/10/25 01:48:10;;;;;;;41.65;26.25;;;;;;;11.69;100.00;97992.21;1753032;81;21025;-82
2022/10/25 01:50:39;;;;;;;35.70;23.00;;;;;;;11.67;100.00;97989.53;1753147;81;21019;-82
2022/10/25 01:53:05;;;;;;;34.85;22.77;;;;;;;11.62;100.00;97986.31;1753086;81;21735;-82
2022/10/25 01:55:42;;;;;;;34.00;22.73;;;;;;;11.62;100.00;97988.22;1752890;81;20850;-81
2022/10/25 01:58:33;;;;;;;34.15;23.45;;;;;;;11.61;100.00;97998.27;1751711;81;20986;-80
2022/10/25 02:01:23;;;;;;;32.93;20.97;;;;;;;11.60;100.00;97992.58;1752881;81;21001;-82
2022/10/25 02:03:57;;;;;;;34.58;21.87;;;;;;;11.50;100.00;97994.04;1745583;81;20990;-82
2022/10/25 02:06:49;;;;;;;35.63;22.00;;;;;;;11.40;100.00;97992.78;1752684;81;21856;-82
2022/10/25 02:09:36;;;;;;;29.82;19.07;;;;;;;11.33;100.00;97988.23;1618639;87;21053;-81
2022/10/25 02:12:03;;;;;;;33.33;21.07;;;;;;;11.28;100.00;97989.10;1731503;82;21090;-82
2022/10/25 02:14:39;;;;;;;32.45;19.82;;;;;;;11.26;100.00;97993.98;1740140;82;21054;-82
2022/10/25 02:17:10;;;;;;;31.42;20.17;;;;;;;11.23;100.00;97995.91;1740200;82;21051;-79
2022/10/25 02:19:43;;;;;;;49.13;28.27;;;;;;;11.19;100.00;98001.08;1740186;82;21143;-82
2022/10/25 02:22:09;;;;;;;34.38;21.55;;;;;;;11.19;100.00;98007.86;1739598;82;21498;-79
2022/10/25 02:24:35;;;;;;;33.28;20.80;;;;;;;11.12;100.00;98016.89;1740244;82;21071;-79
2022/10/25 02:27:02;;;;;;;36.33;22.22;;;;;;;11.09;100.00;98013.91;1740378;82;20998;-79
2022/10/25 02:29:29;;;;;;;33.35;24.12;;;;;;;11.03;100.00;98024.02;1740318;82;21027;-79
2022/10/25 02:31:55;;;;;;;33.10;24.75;;;;;;;10.99;100.00;98010.19;1740189;82;21070;-81
2022/10/25 02:34:21;;;;;;;37.03;23.25;;;;;;;10.97;100.00;98001.54;1740024;82;20890;-79
2022/10/25 02:36:49;;;;;;;34.38;21.60;;;;;;;10.95;100.00;97998.30;1739935;82;20860;-79
2022/10/25 02:39:17;;;;;;;39.58;27.58;;;;;;;10.87;100.00;97996.19;1739431;82;21023;-79
2022/10/25 02:41:43;;;;;;;37.70;24.18;;;;;;;10.86;100.00;97998.64;1739987;82;21535;-82
2022/10/25 02:44:08;;;;;;;39.25;23.47;;;;;;;10.81;100.00;98004.09;1756862;81;21169;-82
2022/10/25 02:46:35;;;;;;;36.38;22.62;;;;;;;10.79;100.00;97999.50;1770153;81;37761;-79
2022/10/25 02:49:01;;;;;;;30.92;22.25;;;;;;;10.74;100.00;98004.94;1770699;81;20972;-81
2022/10/25 02:51:27;;;;;;;32.17;20.25;;;;;;;10.65;100.00;97997.95;1770702;81;21031;-82
2022/10/25 02:53:53;;;;;;;30.20;19.45;;;;;;;10.55;100.00;97998.02;1770726;80;20978;-79
2022/10/25 02:56:20;;;;;;;29.40;19.67;;;;;;;10.49;100.00;97991.55;1770585;81;21144;-80
2022/10/25 02:58:47;;;;;;;33.35;18.60;;;;;;;10.43;100.00;97990.78;1770535;81;20955;-79
2022/10/25 03:01:14;;;;;;;27.30;16.30;;;;;;;10.38;100.00;97988.89;1770649;81;21015;-82
2022/10/25 03:03:40;;;;;;;32.20;18.77;;;;;;;10.32;100.00;97992.71;1770589;81;20972;-82
2022/10/25 03:06:06;;;;;;;26.27;17.73;;;;;;;10.28;100.00;97988.95;1770577;80;21617;-81
2022/10/25 03:08:32;;;;;;;28.27;18.45;;;;;;;10.22;100.00;97991.41;1754479;81;21102;-79
2022/10/25 03:10:59;;;;;;;29.10;18.17;;;;;;;10.13;100.00;97997.91;1739797;82;21018;-82
2022/10/25 03:13:25;;;;;;;30.72;16.45;;;;;;;10.06;100.00;98002.00;1740101;82;22273;-82
2022/10/25 03:15:51;;;;;;;23.98;14.90;;;;;;;10.00;100.00;97994.47;1710858;82;20951;-81
2022/10/25 03:18:16;;;;;;;23.50;15.68;;;;;;;9.96;100.00;98000.69;1740028;82;20979;-79
2022/10/25 03:20:43;;;;;;;25.52;13.90;;;;;;;9.93;100.00;98001.25;1740074;82;21164;-79
2022/10/25 03:23:09;;;;;;;25.10;13.85;;;;;;;9.88;100.00;98007.48;1740024;82;22156;-79
2022/10/25 03:25:35;;;;;;;22.75;12.30;;;;;;;9.87;100.00;98008.02;1740137;82;21035;-79
2022/10/25 03:28:00;;;;;;;24.25;13.68;;;;;;;9.88;100.00;98006.13;1739948;82;20927;-82
2022/10/25 03:30:28;;;;;;;28.12;13.25;;;;;;;9.90;100.00;98016.94;1740247;82;20884;-79
2022/10/25 03:32:54;;;;;;;22.93;13.15;;;;;;;9.93;100.00;98015.59;1740005;82;21221;-79
2022/10/25 03:35:20;;;;;;;19.42;13.03;;;;;;;9.95;100.00;98016.12;1740116;82;20982;-79
2022/10/25 03:37:48;;;;;;;20.02;13.93;;;;;;;9.96;100.00;98018.28;1740180;82;20904;-79
2022/10/25 03:40:14;;;;;;;19.77;12.20;;;;;;;9.99;100.00;98017.17;1740169;82;21019;-82
2022/10/25 03:42:40;;;;;;;16.57;11.60;;;;;;;10.02;100.00;98009.07;1740311;82;21304;-79
2022/10/25 03:45:06;;;;;;;17.60;12.20;;;;;;;10.05;100.00;98014.73;1769207;81;21169;-79
2022/10/25 03:47:32;;;;;;;16.70;11.50;;;;;;;10.08;100.00;98015.55;1770562;81;21527;-82
2022/10/25 03:49:58;;;;;;;19.87;11.95;;;;;;;10.13;100.00;98020.93;1770745;81;20919;-79
2022/10/25 03:52:24;;;;;;;20.12;12.63;;;;;;;10.16;100.00;98020.91;1770486;81;20888;-79
2022/10/25 03:54:50;;;;;;;18.42;12.47;;;;;;;10.18;100.00;98026.34;1770697;81;20967;-79
2022/10/25 03:57:16;;;;;;;17.27;11.65;;;;;;;10.19;100.00;98024.44;1770761;80;21686;-81
2022/10/25 03:59:43;;;;;;;17.50;13.13;;;;;;;10.21;100.00;98019.55;1770728;81;20963;-79
2022/10/25 04:02:10;;;;;;;18.32;12.18;;;;;;;10.18;100.00;98024.17;1770288;80;21062;-79
2022/10/25 04:04:36;;;;;;;22.98;13.03;;;;;;;10.18;100.00;98028.23;1770895;81;21464;-82
2022/10/25 04:07:02;;;;;;;19.67;12.70;;;;;;;10.17;100.00;98028.78;1770454;80;20987;-79
2022/10/25 04:09:28;;;;;;;22.02;12.43;;;;;;;10.17;100.00;98034.20;1742644;81;21665;-81
2022/10/25 04:11:54;;;;;;;18.05;11.83;;;;;;;10.21;100.00;98030.92;1739870;82;20868;-82
2022/10/25 04:14:20;;;;;;;19.95;12.73;;;;;;;10.23;100.00;98031.48;1739987;82;20975;-79
2022/10/25 04:16:46;;;;;;;19.50;11.97;;;;;;;10.22;100.00;98027.13;1739952;82;20951;-79
2022/10/25 04:19:12;;;;;;;20.27;12.15;;;;;;;10.24;100.00;98023.08;1739938;82;21018;-82
2022/10/25 04:21:38;;;;;;;16.57;11.85;;;;;;;10.27;100.00;98029.31;1740024;82;21826;-81
2022/10/25 04:24:04;;;;;;;19.30;12.10;;;;;;;10.24;100.00;98027.14;1739744;82;20976;-81
2022/10/25 04:26:30;;;;;;;132.50;92.62;;;;;;;10.26;100.00;98022.83;1740115;81;21034;-80
2022/10/25 04:28:56;;;;;;;68.22;50.40;;;;;;;10.24;100.00;98025.78;1739805;82;21589;-82
2022/10/25 04:31:22;;;;;;;21.90;14.60;;;;;;;10.29;100.00;98022.27;1739939;82;20864;-81
2022/10/25 04:33:52;;;;;;;17.30;11.75;;;;;;;10.34;100.00;98020.87;1740099;82;21020;-79
2022/10/25 04:36:18;;;;;;;16.30;11.60;;;;;;;10.37;100.00;98019.78;1740039;82;20999;-82
2022/10/25 04:38:51;;;;;;;16.95;10.63;;;;;;;10.40;100.00;98025.98;1740145;82;21015;-82
2022/10/25 04:41:17;;;;;;;15.72;10.23;;;;;;;10.42;100.00;98025.70;1740181;82;21040;-82
2022/10/25 04:43:43;;;;;;;17.70;10.18;;;;;;;10.43;100.00;98026.80;1751720;81;21507;-81
2022/10/25 04:46:09;;;;;;;15.20;10.15;;;;;;;10.46;100.00;98021.37;1770642;81;21961;-79
2022/10/25 04:48:39;;;;;;;19.82;11.43;;;;;;;10.47;100.00;98021.63;1770745;80;20891;-80
2022/10/25 04:51:05;;;;;;;16.05;11.60;;;;;;;10.48;100.00;98019.73;1770453;81;21436;-83
2022/10/25 04:53:31;;;;;;;15.70;9.73;;;;;;;10.52;100.00;98030.29;1770653;80;20963;-79
2022/10/25 04:56:02;;;;;;;16.73;10.48;;;;;;;10.52;100.00;98030.29;1770891;81;20947;-79
2022/10/25 04:58:28;;;;;;;15.18;10.85;;;;;;;10.43;100.00;98032.77;1770296;81;21136;-79
2022/10/25 05:01:00;;;;;;;19.12;10.60;;;;;;;10.47;100.00;98028.95;1763704;80;21009;-82
2022/10/25 05:03:28;;;;;;;17.42;10.78;;;;;;;10.49;100.00;98024.05;1759969;81;21027;-81
2022/10/25 05:05:53;;;;;;;17.12;11.28;;;;;;;10.51;100.00;98026.77;1768208;81;21442;-82
2022/10/25 05:08:19;;;;;;;18.85;12.60;;;;;;;10.52;100.00;98021.62;1756402;80;20886;-80
2022/10/25 05:10:53;;;;;;;16.42;11.25;;;;;;;10.53;100.00;98013.75;1772036;81;21174;-82
2022/10/25 05:13:19;;;;;;;19.77;12.40;;;;;;;10.54;100.00;98012.66;1688169;83;21026;-82
2022/10/25 05:15:54;;;;;;;17.67;11.40;;;;;;;10.53;100.00;98007.52;1738816;82;21008;-79
2022/10/25 05:18:20;;;;;;;18.35;11.48;;;;;;;10.51;100.00;98001.03;1739081;82;21044;-82
2022/10/25 05:20:54;;;;;;;16.80;11.85;;;;;;;10.54;100.00;98007.23;1757527;81;20964;-79
2022/10/25 05:23:20;;;;;;;17.98;12.05;;;;;;;10.59;100.00;98000.96;1769435;81;21461;-79
2022/10/25 05:25:46;;;;;;;17.27;12.23;;;;;;;10.61;100.00;98001.52;1769636;81;21032;-82
2022/10/25 05:28:12;;;;;;;18.90;13.45;;;;;;;10.62;100.00;98001.23;1746674;82;21476;-82
2022/10/25 05:30:42;;;;;;;19.65;12.03;;;;;;;10.64;100.00;98008.53;1769863;81;20877;-80
2022/10/25 05:33:08;;;;;;;19.07;12.30;;;;;;;10.65;100.00;98006.63;1749012;81;21438;-82
2022/10/25 05:35:34;;;;;;;17.73;11.12;;;;;;;10.62;100.00;98012.62;1749262;79;21120;-80
2022/10/25 05:38:01;;;;;;;19.02;13.43;;;;;;;10.61;100.00;98007.74;1757076;80;21070;-80
2022/10/25 05:40:27;;;;;;;20.40;12.75;;;;;;;10.61;100.00;98009.09;1763589;81;20938;-79
2022/10/25 05:42:53;;;;;;;19.25;11.80;;;;;;;10.62;100.00;98019.39;1742218;81;20899;-82
2022/10/25 05:45:19;;;;;;;17.02;10.90;;;;;;;10.60;100.00;98025.64;1736171;81;21018;-81
2022/10/25 05:47:45;;;;;;;17.70;12.35;;;;;;;10.61;100.00;98022.65;1751009;81;21090;-82
2022/10/25 05:50:11;;;;;;;18.42;12.75;;;;;;;10.61;100.00;98024.55;1735317;81;20844;-79
2022/10/25 05:52:42;;;;;;;17.15;11.57;;;;;;;10.62;100.00;98024.81;1738028;80;20980;-79
2022/10/25 05:55:09;;;;;;;17.23;12.90;;;;;;;10.62;100.00;98032.94;1720345;83;21008;-82
2022/10/25 05:57:35;;;;;;;16.15;11.33;;;;;;;10.65;100.00;98043.21;1739726;82;21031;-79
2022/10/25 06:00:01;;;;;;;17.85;10.18;;;;;;;10.70;100.00;98037.77;1753597;79;21838;-79
2022/10/25 06:02:27;;;;;;;22.25;14.30;;;;;;;10.70;100.00;98037.77;1760463;79;21041;-79
2022/10/25 06:04:53;;;;;;;19.10;12.25;;;;;;;10.73;100.00;98041.27;1742942;81;20920;-79
2022/10/25 06:07:19;;;;;;;19.57;10.32;;;;;;;10.79;100.00;98056.97;1740782;79;21537;-80
2022/10/25 06:09:44;;;;;;;19.27;11.80;;;;;;;10.84;100.00;98052.85;1745062;82;20983;-80
2022/10/25 06:12:10;;;;;;;14.60;10.35;;;;;;;10.86;100.00;98054.77;1745427;80;21686;-79
2022/10/25 06:14:36;;;;;;;106.87;72.75;;;;;;;10.91;100.00;98057.42;1750805;81;20861;-79
2022/10/25 06:17:02;;;;;;;77.30;48.78;;;;;;;10.93;100.00;98060.11;1751478;81;22581;-82
2022/10/25 06:19:28;;;;;;;34.15;22.07;;;;;;;11.03;100.00;98062.52;1751608;81;20892;-81
2022/10/25 06:21:55;;;;;;;20.43;12.28;;;;;;;11.12;100.00;98069.77;1745887;81;21607;-79
2022/10/25 06:24:21;;;;;;;19.30;12.40;;;;;;;11.19;100.00;98073.50;1746600;80;21084;-80
2022/10/25 06:26:47;;;;;;;18.70;12.98;;;;;;;11.26;100.00;98085.66;1757426;80;20932;-82
2022/10/25 06:29:12;;;;;;;18.55;13.38;;;;;;;11.65;100.00;98080.75;1754251;80;20975;-82
2022/10/25 06:31:40;;;;;;;19.90;13.83;;;;;;;11.77;100.00;98083.88;1743453;80;20846;-82
2022/10/25 06:34:06;;;;;;;19.42;11.73;;;;;;;11.77;100.00;98093.38;1737777;81;21062;-82
2022/10/25 06:36:32;;;;;;;17.23;11.50;;;;;;;11.82;100.00;98095.29;1746344;80;21184;-82
2022/10/25 06:38:58;;;;;;;19.50;12.47;;;;;;;11.99;100.00;98100.29;1743463;80;21491;-82
2022/10/25 06:41:26;;;;;;;15.95;11.53;;;;;;;12.26;100.00;98108.69;1738222;80;21519;-80
2022/10/25 06:43:53;;;;;;;20.30;13.80;;;;;;;12.54;100.00;98107.01;1746561;81;21043;-82
2022/10/25 06:46:22;;;;;;;13.88;12.10;;;;;;;12.78;100.00;98112.43;1739060;81;21142;-79
2022/10/25 06:48:48;;;;;;;14.75;10.82;;;;;;;12.88;100.00;98108.21;1739029;81;21062;-82
2022/10/25 06:51:14;;;;;;;11.97;9.45;;;;;;;12.87;100.00;98112.59;1735821;80;20974;-79
2022/10/25 06:53:40;;;;;;;15.68;10.90;;;;;;;12.89;100.00;98122.62;1739114;81;21593;-80
2022/10/25 06:56:08;;;;;;;20.85;11.63;;;;;;;12.90;100.00;98127.79;1738454;81;20971;-82
2022/10/25 06:58:34;;;;;;;18.10;11.43;;;;;;;12.95;100.00;98131.78;1741868;80;21102;-79
2022/10/25 07:01:04;;;;;;;18.02;11.05;;;;;;;12.98;100.00;98139.34;1745634;80;21130;-82
2022/10/25 07:03:33;;;;;;;12.53;9.70;;;;;;;13.01;100.00;98147.50;1786343;80;21100;-82
2022/10/25 07:06:02;;;;;;;14.45;11.35;;;;;;;13.03;100.00;98143.92;1710997;81;21535;-79
2022/10/25 07:08:28;;;;;;;17.98;14.13;;;;;;;13.06;100.00;98146.05;1749158;81;21075;-79
2022/10/25 07:10:54;;;;;;;15.28;11.18;;;;;;;13.03;100.00;98134.95;1746653;80;21377;-79
2022/10/25 07:13:21;;;;;;;16.77;9.78;;;;;;;13.06;100.00;98131.09;1735487;80;21154;-79
2022/10/25 07:15:46;;;;;;;12.85;9.43;;;;;;;13.10;100.00;98119.09;1743591;80;21631;-82
2022/10/25 07:18:12;;;;;;;11.03;7.25;;;;;;;13.13;100.00;98129.38;1748951;80;20897;-80
2022/10/25 07:20:38;;;;;;;8.78;6.53;;;;;;;13.17;100.00;98128.51;1740719;80;21179;-79
2022/10/25 07:23:04;;;;;;;9.75;7.62;;;;;;;13.24;100.00;98131.70;1739585;80;20927;-79
2022/10/25 07:25:30;;;;;;;14.43;11.38;;;;;;;13.41;100.00;98128.99;1740484;80;21784;-82
2022/10/25 07:27:56;;;;;;;12.33;8.60;;;;;;;13.59;100.00;98129.55;1741685;80;20895;-80
2022/10/25 07:30:22;;;;;;;9.30;7.33;;;;;;;13.84;100.00;98126.94;1743511;80;21090;-81
2022/10/25 07:32:48;;;;;;;11.38;7.15;;;;;;;14.06;100.00;98127.67;1736979;81;21640;-80
2022/10/25 07:35:14;;;;;;;10.03;6.58;;;;;;;14.34;100.00;98114.33;1740717;80;21160;-77
2022/10/25 07:37:40;;;;;;;14.53;10.40;;;;;;;14.55;100.00;98107.97;1741632;80;21320;-80
2022/10/25 07:40:07;;;;;;;12.47;6.60;;;;;;;14.78;100.00;98104.76;1756726;80;21625;-82
2022/10/25 07:42:32;;;;;;;12.65;7.28;;;;;;;14.94;100.00;98104.69;1710098;81;21062;-82
2022/10/25 07:44:58;;;;;;;9.48;5.40;;;;;;;15.03;100.00;98096.59;1750660;80;20971;-82
2022/10/25 07:47:24;;;;;;;11.22;6.30;;;;;;;15.15;100.00;98096.07;1738757;80;20940;-80
2022/10/25 07:49:50;;;;;;;13.68;6.83;;;;;;;15.11;100.00;98095.86;1740126;80;21123;-83
2022/10/25 07:52:16;;;;;;;4.37;3.62;;;;;;;15.13;100.00;98099.11;1754211;80;20889;-82
2022/10/25 07:54:42;;;;;;;19.32;11.25;;;;;;;15.13;100.00;98096.94;1748965;81;20868;-80
2022/10/25 07:57:09;;;;;;;13.50;7.65;;;;;;;15.17;100.00;98095.20;1747336;80;20921;-82
2022/10/25 07:59:35;;;;;;;9.83;4.22;;;;;;;15.23;100.00;98094.78;1740645;80;21471;-82
2022/10/25 08:02:01;;;;;;;12.63;6.62;;;;;;;15.29;100.00;98087.83;1746100;80;21142;-80
2022/10/25 08:04:30;;;;;;;9.83;5.97;;;;;;;15.33;100.00;98087.47;1748653;80;21432;-82
2022/10/25 08:07:00;;;;;;;7.42;5.30;;;;;;;15.34;100.00;98074.88;1749658;79;21265;-80
2022/10/25 08:09:27;;;;;;;9.33;5.60;;;;;;;15.37;100.00;98076.97;1757683;81;21101;-80
2022/10/25 08:11:53;;;;;;;22.15;10.63;;;;;;;15.33;100.00;98083.38;1738820;80;21098;-80
2022/10/25 08:14:19;;;;;;;27.70;15.55;;;;;;;15.27;100.00;98084.60;1790693;80;21152;-79
2022/10/25 08:16:44;;;;;;;27.50;13.80;;;;;;;15.23;100.00;98087.96;1758670;80;21605;-80
2022/10/25 08:19:10;;;;;;;14.25;9.28;;;;;;;15.20;100.00;98083.09;1733471;81;21410;-80
2022/10/25 08:21:36;;;;;;;13.35;6.40;;;;;;;15.19;100.00;98086.14;1737692;81;20955;-80
2022/10/25 08:24:02;;;;;;;12.55;8.03;;;;;;;15.23;100.00;98084.42;1740966;81;21721;-83
2022/10/25 08:26:28;;;;;;;7.50;5.45;;;;;;;15.18;100.00;98082.61;1743909;80;21610;-81
2022/10/25 08:28:54;;;;;;;14.30;7.83;;;;;;;15.19;100.00;98077.95;1751954;80;20960;-82
2022/10/25 08:31:20;;;;;;;15.23;9.93;;;;;;;15.18;100.00;98068.96;1739928;80;20987;-80
2022/10/25 08:33:46;;;;;;;18.10;8.13;;;;;;;15.22;100.00;98069.17;1740008;80;20849;-80
2022/10/25 08:36:12;;;;;;;11.83;5.95;;;;;;;15.31;100.00;98073.33;1746030;80;21083;-79
2022/10/25 08:38:38;;;;;;;9.75;5.30;;;;;;;15.41;100.00;98079.91;1741167;80;21177;-82
2022/10/25 08:41:13;;;;;;;11.40;5.92;;;;;;;15.49;100.00;98093.63;1740813;80;21610;-82
2022/10/25 08:44:03;;;;;;;13.00;6.50;;;;;;;15.58;100.00;98102.45;1757321;80;21461;-81
2022/10/25 08:46:36;;;;;;;9.20;5.25;;;;;;;15.68;100.00;98103.03;1768116;80;21107;-80
2022/10/25 08:49:47;;;;;;;7.70;4.45;;;;;;;15.72;100.00;98109.50;1741841;80;21048;-80
2022/10/25 08:52:28;;;;;;;8.18;3.75;;;;;;;15.82;100.00;98117.20;1730755;80;21398;-82
2022/10/25 08:54:55;;;;;;;10.72;5.08;;;;;;;16.02;100.00;98112.01;1744117;80;21052;-80
2022/10/25 08:57:26;;;;;;;18.10;8.47;;;;;;;16.06;100.00;98105.34;1745054;80;21087;-80
2022/10/25 08:59:55;;;;;;;21.75;11.57;;;;;;;16.06;100.00;98108.91;1749911;80;21107;-80
2022/10/25 09:02:42;;;;;;;23.55;13.75;;;;;;;16.23;100.00;98107.36;1743858;80;21899;-80
2022/10/25 09:05:50;;;;;;;16.97;8.73;;;;;;;16.41;100.00;98113.19;1739803;80;21854;-80
2022/10/25 09:08:37;;;;;;;50.60;26.45;;;;;;;16.57;100.00;98112.98;1739796;81;21031;-80
2022/10/25 09:11:30;;;;;;;35.25;16.55;;;;;;;16.68;100.00;98109.42;1740184;81;22047;-80
2022/10/25 09:14:13;;;;;;;6.25;4.15;;;;;;;16.89;100.00;98109.66;1739985;80;21071;-82
2022/10/25 09:16:52;;;;;;;15.08;9.30;;;;;;;17.08;100.00;98114.84;1746535;79;21121;-80
2022/10/25 09:19:34;;;;;;;15.03;8.40;;;;;;;17.26;100.00;98112.39;1740883;80;21075;-82
2022/10/25 09:22:06;;;;;;;8.20;3.83;;;;;;;17.44;99.92;98114.01;1748220;80;21193;-80
2022/10/25 09:24:52;;;;;;;19.82;9.55;;;;;;;17.63;100.00;98112.30;1742023;81;21019;-83
2022/10/25 09:27:32;;;;;;;13.95;8.65;;;;;;;17.63;97.07;98119.72;1740262;81;21016;-82
2022/10/25 09:30:07;;;;;;;11.83;8.78;;;;;;;17.45;98.00;98124.40;1749892;80;20978;-83
2022/10/25 09:32:55;;;;;;;7.60;5.12;;;;;;;17.30;97.34;98122.93;1721579;80;21148;-82
2022/10/25 09:35:29;;;;;;;7.07;3.40;;;;;;;17.14;95.25;98129.99;1751122;80;21374;-82
2022/10/25 09:38:06;;;;;;;7.53;3.83;;;;;;;16.97;96.00;98128.59;1760582;81;21641;-80
2022/10/25 09:40:37;;;;;;;13.80;7.30;;;;;;;16.86;96.20;98132.20;1761135;81;21051;-80
2022/10/25 09:43:10;;;;;;;8.60;3.87;;;;;;;16.76;96.63;98128.39;1743437;80;20983;-82
2022/10/25 09:45:49;;;;;;;8.28;3.80;;;;;;;16.67;96.99;98139.27;1718117;81;21643;-80
2022/10/25 09:48:25;;;;;;;8.35;4.10;;;;;;;16.62;96.51;98137.47;1739683;80;21075;-80
2022/10/25 09:51:05;;;;;;;9.30;4.00;;;;;;;16.69;96.78;98143.89;1741472;81;20983;-80
2022/10/25 09:53:31;;;;;;;8.30;3.80;;;;;;;16.71;96.54;98140.83;1744132;81;21374;-82
2022/10/25 09:55:59;;;;;;;7.90;3.80;;;;;;;16.72;97.00;98145.98;1740828;81;21009;-80
2022/10/25 09:58:39;;;;;;;5.85;2.92;;;;;;;16.74;96.54;98135.52;1740146;80;21520;-82
2022/10/25 10:01:15;;;;;;;9.23;4.10;;;;;;;16.75;96.75;98137.16;1710865;81;20996;-82
2022/10/25 10:03:41;;;;;;;19.32;8.70;;;;;;;16.77;95.56;98140.38;1709537;81;21558;-82
2022/10/25 10:06:26;;;;;;;10.98;5.60;;;;;;;16.73;96.49;98133.91;1746074;80;20941;-82
2022/10/25 10:08:59;;;;;;;9.80;3.75;;;;;;;16.73;96.84;98133.91;1740212;80;21498;-82
2022/10/25 10:11:25;;;;;;;6.37;3.55;;;;;;;16.72;96.80;98136.97;1743874;80;21168;-80
2022/10/25 10:13:55;;;;;;;8.48;3.85;;;;;;;16.78;95.93;98137.08;1751525;80;21390;-82
2022/10/25 10:16:37;;;;;;;9.30;4.75;;;;;;;16.70;94.83;98129.08;1743842;80;21067;-80
2022/10/25 10:19:22;;;;;;;16.25;8.40;;;;;;;16.61;94.85;98135.05;1717255;81;21304;-80
2022/10/25 10:21:50;;;;;;;9.63;4.87;;;;;;;16.49;93.43;98134.30;1749232;80;21114;-80
2022/10/25 10:24:20;;;;;;;11.20;6.37;;;;;;;16.37;93.43;98131.33;1738433;80;21511;-79
2022/10/25 10:26:50;;;;;;;8.18;3.92;;;;;;;16.20;93.28;98138.08;1744232;80;21034;-82
2022/10/25 10:29:20;;;;;;;3.77;2.67;;;;;;;16.11;94.50;98135.30;1710871;81;21067;-80
2022/10/25 10:31:53;;;;;;;4.92;2.77;;;;;;;15.94;93.90;98131.89;1738721;80;21532;-80
2022/10/25 10:34:36;;;;;;;4.25;2.55;;;;;;;15.85;94.66;98138.42;1738894;79;21397;-83
2022/10/25 10:37:06;;;;;;;8.30;3.12;;;;;;;15.70;95.15;98137.66;1740627;80;21436;-82
2022/10/25 10:39:32;;;;;;;5.60;3.05;;;;;;;15.80;95.96;98131.95;1745168;80;21300;-82
2022/10/25 10:42:04;;;;;;;4.37;2.80;;;;;;;15.79;96.03;98129.53;1744363;80;22291;-82
2022/10/25 10:44:34;;;;;;;5.05;2.60;;;;;;;15.87;95.64;98140.27;1735382;80;21044;-80
2022/10/25 10:47:04;;;;;;;5.67;2.45;;;;;;;15.89;95.72;98135.30;1739312;80;21409;-80
2022/10/25 10:49:35;;;;;;;5.70;3.22;;;;;;;15.98;96.37;98132.06;1739939;80;21194;-80
2022/10/25 10:52:02;;;;;;;5.85;2.80;;;;;;;16.08;94.50;98130.46;1741246;80;21158;-82
2022/10/25 10:54:33;;;;;;;4.97;2.80;;;;;;;16.24;94.01;98130.31;1738808;80;21001;-83
2022/10/25 10:57:02;;;;;;;5.62;2.95;;;;;;;16.52;94.46;98131.48;1741631;80;21012;-80
2022/10/25 10:59:38;;;;;;;7.20;2.95;;;;;;;16.61;92.76;98128.22;1739096;80;21110;-79
2022/10/25 11:02:31;;;;;;;6.92;3.12;;;;;;;16.55;91.94;98130.84;1738550;80;22330;-80
2022/10/25 11:04:57;;;;;;;9.13;3.17;;;;;;;16.55;92.47;98126.17;1741459;80;21059;-80
2022/10/25 11:07:32;;;;;;;4.85;2.47;;;;;;;16.56;92.71;98124.24;1748682;80;21043;-83
2022/10/25 11:10:20;;;;;;;7.17;3.22;;;;;;;16.53;91.77;98127.63;1741211;81;20995;-83
2022/10/25 11:13:05;;;;;;;7.33;2.83;;;;;;;16.56;92.37;98126.98;1739510;80;21035;-80
2022/10/25 11:15:34;;;;;;;5.12;2.80;;;;;;;16.68;93.47;98126.40;1749773;80;21106;-83
2022/10/25 11:18:02;;;;;;;16.20;5.05;;;;;;;16.81;93.04;98127.66;1751013;80;21456;-80
2022/10/25 11:20:33;;;;;;;7.08;3.02;;;;;;;16.94;92.89;98121.83;1757128;80;21512;-80
2022/10/25 11:23:11;;;;;;;7.97;3.02;;;;;;;17.05;92.57;98118.23;1734884;80;21496;-83
2022/10/25 11:25:42;;;;;;;7.95;2.80;;;;;;;17.18;92.12;98129.05;1755161;80;20965;-80
2022/10/25 11:28:30;;;;;;;5.05;2.80;;;;;;;17.30;92.21;98134.45;1751126;80;21105;-78
2022/10/25 11:31:27;;;;;;;5.60;2.93;;;;;;;17.27;89.22;98132.36;1742348;80;21032;-83
2022/10/25 11:34:24;;;;;;;6.30;2.33;;;;;;;17.19;90.58;98129.85;1766355;80;21673;-80